PAP weather

Toussaint Louverture International Airport
Port-au-Prince, Ouest Department, Haiti

Public forecast

Using degrees Celsius for public forecast. Weather courtesy of forecast.io.

METAR (pilot weather report)

Retrieved 2019/03/26 23:00 UTC (1 hour ago):

MTPP 262300Z 30009KT 9999 SCT024CB 27/23 Q1011 A2986 RMK/CB/NE/SW

TAF (pilot weather forecast)

Retrieved 2019/03/26 18:18 UTC (6 hours ago):

TAF MTPP 261700Z 2618/2718 27012KT 9000 FEW026CB SCT030 TEMPO 2622/2704 4000 TSRA SCT018CB BKN035 BECMG 2706/2708 VRB02KT 7000 NSW FEW020 SCT040 FM271300 12006KT 9999 FEW024